Time;durP1;ratioP1;P1;durP2;ratioP2;P2;SDS_P1;SDS_P2;PMS_P1;PMS_P2;Temp;Humidity;BMP_temperature;BMP_pressure;BME280_temperature;BME280_humidity;BME280_pressure;Samples;Min_cycle;Max_cycle;Signal;HPM_P1;HPM_P2
2023/09/21 00:00:29;;;;;;;5.75;5.13;;;;;;;;;;4979117;28;20039;-82
2023/09/21 00:02:56;;;;;;;7.22;5.05;;;;;;;;;;4981224;28;20066;-82
2023/09/21 00:05:23;;;;;;;5.20;4.80;;;;;;;;;;4991740;28;20050;-82
2023/09/21 00:07:50;;;;;;;6.80;5.45;;;;;;;;;;4974756;28;20106;-82
2023/09/21 00:10:17;;;;;;;6.25;5.43;;;;;;;;;;5005831;28;20046;-81
2023/09/21 00:12:44;;;;;;;4.90;4.50;;;;;;;;;;4982665;28;20045;-80
2023/09/21 00:15:21;;;;;;;5.63;5.15;;;;;;;;;;4966283;28;20046;-83
2023/09/21 00:17:53;;;;;;;6.68;4.72;;;;;;;;;;4999582;28;20042;-82
2023/09/21 00:20:35;;;;;;;6.20;4.82;;;;;;;;;;4964148;28;20080;-81
2023/09/21 00:23:06;;;;;;;6.72;4.72;;;;;;;;;;4996870;28;20034;-82
2023/09/21 00:25:32;;;;;;;6.93;5.25;;;;;;;;;;4978879;28;20149;-82
2023/09/21 00:27:59;;;;;;;7.38;5.30;;;;;;;;;;4995715;28;20038;-82
2023/09/21 00:30:25;;;;;;;5.50;5.10;;;;;;;;;;4978265;28;20707;-81
2023/09/21 00:32:51;;;;;;;12.90;5.90;;;;;;;;;;4961739;28;20046;-80
2023/09/21 00:35:18;;;;;;;5.80;5.22;;;;;;;;;;4964673;28;20588;-82
2023/09/21 00:37:46;;;;;;;6.63;5.40;;;;;;;;;;4948155;28;20080;-81
2023/09/21 00:40:16;;;;;;;5.43;5.00;;;;;;;;;;5011620;28;20509;-82
2023/09/21 00:42:45;;;;;;;8.02;5.28;;;;;;;;;;4961484;28;20034;-80
2023/09/21 00:45:13;;;;;;;6.20;5.60;;;;;;;;;;4963445;28;20081;-81
2023/09/21 00:47:45;;;;;;;8.60;5.55;;;;;;;;;;4964919;28;20042;-81
2023/09/21 00:50:12;;;;;;;7.65;5.55;;;;;;;;;;4977738;28;20061;-81
2023/09/21 00:52:42;;;;;;;6.38;5.88;;;;;;;;;;4945630;28;20045;-80
2023/09/21 00:55:12;;;;;;;8.85;5.80;;;;;;;;;;4996731;28;20046;-81
2023/09/21 00:57:40;;;;;;;9.15;5.53;;;;;;;;;;4969647;28;20159;-83
2023/09/21 01:00:13;;;;;;;5.90;5.05;;;;;;;;;;4980870;28;20100;-82
2023/09/21 01:02:43;;;;;;;6.10;5.60;;;;;;;;;;4981046;28;20046;-82
2023/09/21 01:05:17;;;;;;;6.63;5.40;;;;;;;;;;4981352;28;20038;-83
2023/09/21 01:07:48;;;;;;;11.23;6.28;;;;;;;;;;4979854;28;20046;-83
2023/09/21 01:10:14;;;;;;;8.45;6.25;;;;;;;;;;4978654;28;20038;-81
2023/09/21 01:12:43;;;;;;;6.47;5.90;;;;;;;;;;4961130;28;20182;-82
2023/09/21 01:15:10;;;;;;;6.68;5.97;;;;;;;;;;4995663;28;20073;-82
2023/09/21 01:17:39;;;;;;;6.90;6.30;;;;;;;;;;4961495;28;20046;-81
2023/09/21 01:20:50;;;;;;;9.82;6.53;;;;;;;;;;4960240;28;20042;-78
2023/09/21 01:23:08;;;;;;;7.78;6.25;;;;;;;;;;4953764;28;20042;-83
2023/09/21 01:25:35;;;;;;;8.70;7.18;;;;;;;;;;5000825;28;20121;-83
2023/09/21 01:28:02;;;;;;;7.18;6.57;;;;;;;;;;4968926;28;20089;-82
2023/09/21 01:30:28;;;;;;;7.13;6.53;;;;;;;;;;4980893;28;20519;-80
2023/09/21 01:32:55;;;;;;;7.05;6.43;;;;;;;;;;4976521;28;20085;-82
2023/09/21 01:35:22;;;;;;;7.20;6.60;;;;;;;;;;4979971;28;20050;-82
2023/09/21 01:37:48;;;;;;;10.77;7.78;;;;;;;;;;4983287;28;20046;-80
2023/09/21 01:40:18;;;;;;;8.60;7.35;;;;;;;;;;4983885;28;20038;-82
2023/09/21 01:42:48;;;;;;;7.22;6.60;;;;;;;;;;4970081;28;20651;-83
2023/09/21 01:45:14;;;;;;;7.88;7.13;;;;;;;;;;5003194;28;20056;-81
2023/09/21 01:47:41;;;;;;;14.93;7.55;;;;;;;;;;4983137;28;20089;-82
2023/09/21 01:50:11;;;;;;;8.55;7.45;;;;;;;;;;4960513;28;20084;-84
2023/09/21 01:52:38;;;;;;;14.63;7.60;;;;;;;;;;4945605;28;20088;-82
2023/09/21 01:55:06;;;;;;;8.32;7.43;;;;;;;;;;4963160;28;20522;-80
2023/09/21 01:57:33;;;;;;;8.68;7.72;;;;;;;;;;4996129;28;20178;-81
2023/09/21 02:00:02;;;;;;;10.75;7.43;;;;;;;;;;4947708;28;20502;-81
2023/09/21 02:02:38;;;;;;;8.80;7.70;;;;;;;;;;4980737;28;20050;-82
2023/09/21 02:05:05;;;;;;;12.25;8.13;;;;;;;;;;4962451;28;20145;-83
2023/09/21 02:07:35;;;;;;;9.68;7.68;;;;;;;;;;4974135;28;20501;-80
2023/09/21 02:10:03;;;;;;;9.13;8.23;;;;;;;;;;4991178;28;20050;-80
2023/09/21 02:12:35;;;;;;;9.90;8.00;;;;;;;;;;4991038;28;20105;-78
2023/09/21 02:15:01;;;;;;;10.88;8.35;;;;;;;;;;4973948;28;20069;-79
2023/09/21 02:17:27;;;;;;;9.98;8.15;;;;;;;;;;4958366;28;20073;-76
2023/09/21 02:19:53;;;;;;;12.95;8.25;;;;;;;;;;4957984;28;20053;-77
2023/09/21 02:22:20;;;;;;;9.32;8.32;;;;;;;;;;4958576;28;20046;-78
2023/09/21 02:25:10;;;;;;;11.32;8.25;;;;;;;;;;4963355;28;20054;-79
2023/09/21 02:27:37;;;;;;;15.63;8.50;;;;;;;;;;4974784;28;20072;-77
2023/09/21 02:30:08;;;;;;;11.80;7.80;;;;;;;;;;4942270;28;20085;-78
2023/09/21 02:32:34;;;;;;;9.73;8.45;;;;;;;;;;4974864;28;20042;-80
2023/09/21 02:35:03;;;;;;;9.88;8.57;;;;;;;;;;4973588;28;20053;-79
2023/09/21 02:37:29;;;;;;;11.07;8.13;;;;;;;;;;4959486;28;20059;-79
2023/09/21 02:39:55;;;;;;;10.20;9.02;;;;;;;;;;4960907;28;20425;-80
2023/09/21 02:42:21;;;;;;;13.50;8.80;;;;;;;;;;4929833;28;20042;-78
2023/09/21 02:44:47;;;;;;;10.35;8.80;;;;;;;;;;4934924;28;20072;-79
2023/09/21 02:47:14;;;;;;;11.98;8.55;;;;;;;;;;4959512;28;20079;-79
2023/09/21 02:49:41;;;;;;;9.50;8.60;;;;;;;;;;4923546;28;20491;-80
2023/09/21 02:52:07;;;;;;;10.43;8.80;;;;;;;;;;4955386;28;20047;-79
2023/09/21 02:54:33;;;;;;;10.05;8.80;;;;;;;;;;4954273;28;20049;-79
2023/09/21 02:56:59;;;;;;;15.70;9.02;;;;;;;;;;4938448;28;20066;-79
2023/09/21 02:59:26;;;;;;;10.77;9.10;;;;;;;;;;4970346;28;20051;-78
2023/09/21 03:01:54;;;;;;;9.15;8.25;;;;;;;;;;4985381;28;20043;-82
2023/09/21 03:04:21;;;;;;;11.40;9.30;;;;;;;;;;4989252;28;20042;-80
2023/09/21 03:06:47;;;;;;;14.38;8.63;;;;;;;;;;4973656;28;20050;-78
2023/09/21 03:09:14;;;;;;;14.68;9.43;;;;;;;;;;4957576;28;20042;-78
2023/09/21 03:11:42;;;;;;;11.90;8.95;;;;;;;;;;4972572;28;20061;-78
2023/09/21 03:14:08;;;;;;;9.60;8.70;;;;;;;;;;4973291;28;20174;-79
2023/09/21 03:16:38;;;;;;;12.70;9.05;;;;;;;;;;4973570;28;20034;-79
2023/09/21 03:19:05;;;;;;;10.30;9.30;;;;;;;;;;4973316;28;20088;-78
2023/09/21 03:21:34;;;;;;;13.65;10.05;;;;;;;;;;4956897;28;20395;-80
2023/09/21 03:24:02;;;;;;;10.63;9.52;;;;;;;;;;4957153;28;20046;-79
2023/09/21 03:26:29;;;;;;;13.57;9.60;;;;;;;;;;4973230;28;20484;-80
2023/09/21 03:28:55;;;;;;;10.77;9.75;;;;;;;;;;4989568;28;20367;-80
2023/09/21 03:31:22;;;;;;;14.63;9.77;;;;;;;;;;4971721;28;20050;-81
2023/09/21 03:33:49;;;;;;;12.88;11.57;;;;;;;;;;4988269;28;20042;-81
2023/09/21 03:36:16;;;;;;;14.00;10.25;;;;;;;;;;4980577;28;20046;-82
2023/09/21 03:38:43;;;;;;;10.93;10.02;;;;;;;;;;4976585;28;20042;-82
2023/09/21 03:41:10;;;;;;;11.70;10.60;;;;;;;;;;4984877;28;20089;-81
2023/09/21 03:43:36;;;;;;;12.45;10.55;;;;;;;;;;4974393;28;20049;-81
2023/09/21 03:46:02;;;;;;;11.77;10.23;;;;;;;;;;4973100;28;20035;-81
2023/09/21 03:48:35;;;;;;;13.23;10.18;;;;;;;;;;4973933;28;20494;-81
2023/09/21 03:51:04;;;;;;;11.73;10.27;;;;;;;;;;4976423;28;20042;-82
2023/09/21 03:53:33;;;;;;;13.68;10.93;;;;;;;;;;4992033;28;20061;-81
2023/09/21 03:56:01;;;;;;;16.80;10.77;;;;;;;;;;4976140;28;20065;-82
2023/09/21 03:58:28;;;;;;;10.95;9.73;;;;;;;;;;4993244;28;20058;-81
2023/09/21 04:00:55;;;;;;;12.68;10.32;;;;;;;;;;4994204;28;20042;-80
2023/09/21 04:03:21;;;;;;;11.60;10.27;;;;;;;;;;4960865;28;20053;-81
2023/09/21 04:05:52;;;;;;;14.95;11.50;;;;;;;;;;4971404;28;20426;-81
2023/09/21 04:08:18;;;;;;;13.52;10.30;;;;;;;;;;4957470;28;20039;-81
2023/09/21 04:10:45;;;;;;;11.98;10.80;;;;;;;;;;4957199;28;20062;-83
2023/09/21 04:13:11;;;;;;;17.48;10.93;;;;;;;;;;4975282;28;20043;-82
2023/09/21 04:15:37;;;;;;;12.07;10.88;;;;;;;;;;4978416;28;20122;-83
2023/09/21 04:18:03;;;;;;;12.63;10.32;;;;;;;;;;4963326;28;20067;-82
2023/09/21 04:20:34;;;;;;;13.57;10.93;;;;;;;;;;4964026;28;20050;-82
2023/09/21 04:23:00;;;;;;;13.15;10.40;;;;;;;;;;4963948;28;20063;-83
2023/09/21 04:25:26;;;;;;;16.42;11.10;;;;;;;;;;4946056;28;20144;-82
2023/09/21 04:27:53;;;;;;;15.30;10.93;;;;;;;;;;4977998;28;20098;-82
2023/09/21 04:30:22;;;;;;;12.65;10.27;;;;;;;;;;4978634;28;20046;-81
2023/09/21 04:32:50;;;;;;;12.10;11.13;;;;;;;;;;4977745;28;20038;-81
2023/09/21 04:35:18;;;;;;;14.05;11.48;;;;;;;;;;4976658;28;20093;-82
2023/09/21 04:37:45;;;;;;;13.32;10.52;;;;;;;;;;4961498;28;20104;-82
2023/09/21 04:40:12;;;;;;;15.52;11.20;;;;;;;;;;4978070;28;20042;-82
2023/09/21 04:42:46;;;;;;;12.15;10.70;;;;;;;;;;4993889;28;20042;-82
2023/09/21 04:45:18;;;;;;;14.80;11.43;;;;;;;;;;4960567;28;20049;-81
2023/09/21 04:47:47;;;;;;;15.88;11.60;;;;;;;;;;4977287;28;20186;-83
2023/09/21 04:50:14;;;;;;;12.13;10.95;;;;;;;;;;4977711;28;20058;-82
2023/09/21 04:52:40;;;;;;;13.50;12.10;;;;;;;;;;4978288;28;20042;-82
2023/09/21 04:55:09;;;;;;;12.70;11.52;;;;;;;;;;4960989;28;20047;-82
2023/09/21 04:57:36;;;;;;;12.02;10.80;;;;;;;;;;4978717;28;20053;-82
2023/09/21 05:00:07;;;;;;;12.45;11.25;;;;;;;;;;4977703;28;20042;-82
2023/09/21 05:02:33;;;;;;;15.40;11.05;;;;;;;;;;4960749;28;20122;-82
2023/09/21 05:04:59;;;;;;;14.65;11.27;;;;;;;;;;4976306;28;20403;-81
2023/09/21 05:07:27;;;;;;;13.00;11.10;;;;;;;;;;4992546;28;20053;-79
2023/09/21 05:09:53;;;;;;;11.98;10.77;;;;;;;;;;4975637;28;20043;-81
2023/09/21 05:12:19;;;;;;;12.85;11.55;;;;;;;;;;4976385;28;20054;-80
2023/09/21 05:14:45;;;;;;;14.02;10.70;;;;;;;;;;4959738;28;20570;-81
2023/09/21 05:17:11;;;;;;;11.63;10.48;;;;;;;;;;4954295;28;20049;-82
2023/09/21 05:19:38;;;;;;;15.50;11.27;;;;;;;;;;4983493;28;20034;-80
2023/09/21 05:22:04;;;;;;;12.90;11.02;;;;;;;;;;4973242;28;20034;-75
2023/09/21 05:24:30;;;;;;;12.73;10.68;;;;;;;;;;4968758;28;20502;-75
2023/09/21 05:26:56;;;;;;;12.75;11.45;;;;;;;;;;4974223;28;20065;-76
2023/09/21 05:29:22;;;;;;;12.45;11.10;;;;;;;;;;4992057;28;20526;-75
2023/09/21 05:31:49;;;;;;;11.98;10.93;;;;;;;;;;4956970;28;20043;-76
2023/09/21 05:34:19;;;;;;;14.20;10.52;;;;;;;;;;4973092;28;20502;-77
2023/09/21 05:36:46;;;;;;;12.60;11.40;;;;;;;;;;4974411;28;20410;-76
2023/09/21 05:39:16;;;;;;;13.02;11.05;;;;;;;;;;4973047;28;20046;-73
2023/09/21 05:41:43;;;;;;;11.80;10.43;;;;;;;;;;4974006;28;20042;-76
2023/09/21 05:44:09;;;;;;;13.55;10.60;;;;;;;;;;4985052;28;20048;-74
2023/09/21 05:46:35;;;;;;;12.02;10.82;;;;;;;;;;4972514;28;20054;-74
2023/09/21 05:49:03;;;;;;;12.63;11.30;;;;;;;;;;4988506;28;20053;-74
2023/09/21 05:51:30;;;;;;;13.05;11.70;;;;;;;;;;4983515;28;20141;-74
2023/09/21 05:53:57;;;;;;;15.23;12.45;;;;;;;;;;4996077;28;20034;-74
2023/09/21 05:56:23;;;;;;;15.52;11.15;;;;;;;;;;4992217;28;20228;-74
2023/09/21 05:58:49;;;;;;;11.68;10.18;;;;;;;;;;4990759;28;20045;-75
2023/09/21 06:01:15;;;;;;;12.73;10.40;;;;;;;;;;4950080;28;20042;-75
2023/09/21 06:03:41;;;;;;;13.30;11.32;;;;;;;;;;4981473;28;20537;-75
2023/09/21 06:06:07;;;;;;;12.85;11.52;;;;;;;;;;4990586;28;20054;-75
2023/09/21 06:08:36;;;;;;;23.05;11.50;;;;;;;;;;4988994;28;20104;-74
2023/09/21 06:11:04;;;;;;;13.88;10.98;;;;;;;;;;4986213;28;20050;-71
2023/09/21 06:13:31;;;;;;;12.20;11.05;;;;;;;;;;4987669;28;20140;-73
2023/09/21 06:15:57;;;;;;;21.83;10.90;;;;;;;;;;4988313;28;20100;-74
2023/09/21 06:18:23;;;;;;;11.77;10.50;;;;;;;;;;4989594;28;20051;-73
2023/09/21 06:20:49;;;;;;;14.07;12.55;;;;;;;;;;4973279;28;20715;-73
2023/09/21 06:23:17;;;;;;;14.30;11.20;;;;;;;;;;4971829;28;20072;-73
2023/09/21 06:25:43;;;;;;;16.52;10.02;;;;;;;;;;4980627;28;20474;-74
2023/09/21 06:28:10;;;;;;;17.85;11.52;;;;;;;;;;4956572;28;20038;-73
2023/09/21 06:30:37;;;;;;;13.25;11.02;;;;;;;;;;4990363;28;20403;-74
2023/09/21 06:33:04;;;;;;;12.15;10.77;;;;;;;;;;4972265;28;20128;-75
2023/09/21 06:35:30;;;;;;;13.98;11.18;;;;;;;;;;4941816;28;20050;-76
2023/09/21 06:37:56;;;;;;;13.13;10.65;;;;;;;;;;4963512;28;20100;-75
2023/09/21 06:40:24;;;;;;;16.27;11.07;;;;;;;;;;4987901;28;20074;-73
2023/09/21 06:42:50;;;;;;;13.30;10.80;;;;;;;;;;4989993;28;20049;-75
2023/09/21 06:45:16;;;;;;;16.70;11.48;;;;;;;;;;4989821;28;20054;-73
2023/09/21 06:47:42;;;;;;;13.82;11.75;;;;;;;;;;4989789;28;20046;-74
2023/09/21 06:50:10;;;;;;;15.23;11.15;;;;;;;;;;4970449;28;20108;-73
2023/09/21 06:52:37;;;;;;;16.40;10.95;;;;;;;;;;4989964;28;20038;-74
2023/09/21 06:55:04;;;;;;;11.82;10.60;;;;;;;;;;4972391;28;20466;-74
2023/09/21 06:57:31;;;;;;;12.85;9.75;;;;;;;;;;4988510;28;20100;-74
2023/09/21 06:59:57;;;;;;;11.23;9.98;;;;;;;;;;4972413;28;20086;-75
2023/09/21 07:02:26;;;;;;;13.05;10.13;;;;;;;;;;4984342;28;20277;-74
2023/09/21 07:05:12;;;;;;;11.60;10.40;;;;;;;;;;4987643;28;20061;-74
2023/09/21 07:07:41;;;;;;;10.93;9.32;;;;;;;;;;4989552;28;20400;-74
2023/09/21 07:10:11;;;;;;;16.05;9.82;;;;;;;;;;4989048;28;20070;-73
2023/09/21 07:12:39;;;;;;;11.68;9.50;;;;;;;;;;4993183;28;20501;-73
2023/09/21 07:15:07;;;;;;;13.90;10.00;;;;;;;;;;4976055;28;20125;-73
2023/09/21 07:17:34;;;;;;;11.25;10.15;;;;;;;;;;4993417;28;20046;-74
2023/09/21 07:20:01;;;;;;;12.25;8.55;;;;;;;;;;4993168;28;20048;-74
2023/09/21 07:22:29;;;;;;;14.50;9.32;;;;;;;;;;4975672;28;20053;-74
2023/09/21 07:24:55;;;;;;;15.63;9.43;;;;;;;;;;4993009;28;20467;-73
2023/09/21 07:27:21;;;;;;;12.23;9.05;;;;;;;;;;4993435;28;20049;-74
2023/09/21 07:29:47;;;;;;;9.82;8.90;;;;;;;;;;4993308;28;20030;-73
2023/09/21 07:32:13;;;;;;;11.38;8.05;;;;;;;;;;4992870;28;20514;-75
2023/09/21 07:34:39;;;;;;;13.98;8.00;;;;;;;;;;4992916;28;20049;-74
2023/09/21 07:37:05;;;;;;;13.38;7.38;;;;;;;;;;4975352;28;20046;-74
2023/09/21 07:39:33;;;;;;;10.25;8.25;;;;;;;;;;4975617;28;20038;-74
2023/09/21 07:41:59;;;;;;;12.02;7.60;;;;;;;;;;4975208;28;20657;-73
2023/09/21 07:44:24;;;;;;;14.18;7.25;;;;;;;;;;4973281;28;20053;-74
2023/09/21 07:46:53;;;;;;;13.95;7.28;;;;;;;;;;4993052;28;20812;-75
2023/09/21 07:49:19;;;;;;;12.00;7.60;;;;;;;;;;4991797;28;20593;-75
2023/09/21 07:51:46;;;;;;;10.50;8.18;;;;;;;;;;4976010;28;20038;-74
2023/09/21 07:54:14;;;;;;;14.20;7.72;;;;;;;;;;4992860;28;20054;-74
2023/09/21 07:56:42;;;;;;;11.60;7.57;;;;;;;;;;4992628;28;20034;-73
2023/09/21 07:59:09;;;;;;;12.98;7.95;;;;;;;;;;4991224;28;20128;-74
2023/09/21 08:01:35;;;;;;;12.82;7.35;;;;;;;;;;4975036;28;20046;-73
2023/09/21 08:04:01;;;;;;;10.55;7.45;;;;;;;;;;4974813;28;20061;-73
2023/09/21 08:06:28;;;;;;;10.80;6.88;;;;;;;;;;4992186;28;20137;-73
2023/09/21 08:08:57;;;;;;;15.75;6.78;;;;;;;;;;4992501;28;20129;-74
2023/09/21 08:11:23;;;;;;;14.95;7.13;;;;;;;;;;4990103;28;20526;-73
2023/09/21 08:13:49;;;;;;;8.98;8.10;;;;;;;;;;4990896;28;20125;-74
2023/09/21 08:16:16;;;;;;;10.70;7.32;;;;;;;;;;4991933;28;20083;-73
2023/09/21 08:18:42;;;;;;;15.23;7.15;;;;;;;;;;4989712;28;20088;-72
2023/09/21 08:21:11;;;;;;;9.57;7.53;;;;;;;;;;4971262;28;20459;-72
2023/09/21 08:23:37;;;;;;;16.85;8.63;;;;;;;;;;4992156;28;20046;-73
2023/09/21 08:26:03;;;;;;;11.07;7.55;;;;;;;;;;4974284;28;20054;-72
2023/09/21 08:28:30;;;;;;;14.27;7.18;;;;;;;;;;4991835;28;20502;-71
2023/09/21 08:30:57;;;;;;;11.05;6.93;;;;;;;;;;4992029;28;20043;-72
2023/09/21 08:33:23;;;;;;;9.38;7.28;;;;;;;;;;4973644;28;20490;-73
2023/09/21 08:35:50;;;;;;;12.55;7.53;;;;;;;;;;4958552;28;20114;-71
2023/09/21 08:38:17;;;;;;;12.43;7.20;;;;;;;;;;4973494;28;20105;-76
2023/09/21 08:40:46;;;;;;;8.07;7.15;;;;;;;;;;4973869;28;20134;-72
2023/09/21 08:43:25;;;;;;;9.38;7.60;;;;;;;;;;4974506;28;20054;-72
2023/09/21 08:45:51;;;;;;;13.63;7.55;;;;;;;;;;4992979;28;20558;-73
2023/09/21 08:48:18;;;;;;;9.63;7.15;;;;;;;;;;4992705;28;20070;-72
2023/09/21 08:50:44;;;;;;;11.88;7.45;;;;;;;;;;4995620;28;20074;-73
2023/09/21 08:53:12;;;;;;;18.48;8.70;;;;;;;;;;4968523;28;20520;-73
2023/09/21 08:55:38;;;;;;;10.70;8.05;;;;;;;;;;4962757;28;20043;-74
2023/09/21 08:58:05;;;;;;;14.10;7.82;;;;;;;;;;4955293;28;20113;-74
2023/09/21 09:00:32;;;;;;;12.75;7.97;;;;;;;;;;4955258;28;20133;-74
2023/09/21 09:02:58;;;;;;;11.68;8.13;;;;;;;;;;4939684;28;20137;-75
2023/09/21 09:05:24;;;;;;;8.30;7.45;;;;;;;;;;4954688;28;20062;-72
2023/09/21 09:07:51;;;;;;;9.95;7.82;;;;;;;;;;4959930;28;20038;-74
2023/09/21 09:10:18;;;;;;;12.98;7.65;;;;;;;;;;4958100;28;20057;-74
2023/09/21 09:12:44;;;;;;;12.40;7.53;;;;;;;;;;4989961;28;20466;-74
2023/09/21 09:15:10;;;;;;;21.35;8.00;;;;;;;;;;4972862;28;20042;-74
2023/09/21 09:17:36;;;;;;;9.15;7.50;;;;;;;;;;4989542;28;20594;-75
2023/09/21 09:20:05;;;;;;;10.55;8.00;;;;;;;;;;4990504;28;20053;-74
2023/09/21 09:22:34;;;;;;;16.50;8.05;;;;;;;;;;4991116;28;20490;-73
2023/09/21 09:25:07;;;;;;;13.00;8.30;;;;;;;;;;4973830;28;20407;-74
2023/09/21 09:27:33;;;;;;;17.08;8.25;;;;;;;;;;4974373;28;20066;-74
2023/09/21 09:30:00;;;;;;;12.82;8.25;;;;;;;;;;4992141;28;20046;-74
2023/09/21 09:32:35;;;;;;;14.82;8.23;;;;;;;;;;4990419;28;20042;-75
2023/09/21 09:35:06;;;;;;;15.02;11.18;;;;;;;;;;4988825;28;20066;-73
2023/09/21 09:37:34;;;;;;;16.88;8.48;;;;;;;;;;4974131;28;20042;-73
2023/09/21 09:40:12;;;;;;;13.77;7.53;;;;;;;;;;4991629;28;20046;-74
2023/09/21 09:42:43;;;;;;;12.23;8.50;;;;;;;;;;4958007;28;20042;-74
2023/09/21 09:45:11;;;;;;;14.35;7.90;;;;;;;;;;4974387;28;20046;-72
2023/09/21 09:47:37;;;;;;;11.20;7.78;;;;;;;;;;4991413;28;20038;-74
2023/09/21 09:50:04;;;;;;;13.40;7.53;;;;;;;;;;4957857;28;20050;-74
2023/09/21 09:52:30;;;;;;;17.98;8.18;;;;;;;;;;4974054;28;20038;-74
2023/09/21 09:54:59;;;;;;;23.50;8.02;;;;;;;;;;4973928;28;20042;-74
2023/09/21 09:57:26;;;;;;;23.33;8.52;;;;;;;;;;4957651;28;20042;-74
2023/09/21 09:59:52;;;;;;;25.02;8.75;;;;;;;;;;4973788;28;20066;-75
2023/09/21 10:02:18;;;;;;;14.90;7.90;;;;;;;;;;4957612;28;20046;-75
2023/09/21 10:04:47;;;;;;;14.80;8.48;;;;;;;;;;4973839;28;20050;-73
2023/09/21 10:07:17;;;;;;;8.82;7.90;;;;;;;;;;4958008;28;20124;-74
2023/09/21 10:09:45;;;;;;;14.65;7.95;;;;;;;;;;4991108;28;20042;-73
2023/09/21 10:12:12;;;;;;;12.93;7.93;;;;;;;;;;4991095;28;20136;-75
2023/09/21 10:14:44;;;;;;;9.32;7.75;;;;;;;;;;4991035;28;20065;-74
2023/09/21 10:17:10;;;;;;;11.80;8.02;;;;;;;;;;4973431;28;20392;-73
2023/09/21 10:19:39;;;;;;;13.35;8.00;;;;;;;;;;4991008;28;20042;-73
2023/09/21 10:22:21;;;;;;;12.15;7.40;;;;;;;;;;4957538;28;20125;-74
2023/09/21 10:24:53;;;;;;;20.85;8.73;;;;;;;;;;4973598;28;20465;-74
2023/09/21 10:27:20;;;;;;;16.13;7.55;;;;;;;;;;4990929;28;20576;-74
2023/09/21 10:29:46;;;;;;;17.65;7.95;;;;;;;;;;4991024;28;20434;-74
2023/09/21 10:32:12;;;;;;;15.90;7.97;;;;;;;;;;4973385;28;20047;-74
2023/09/21 10:34:45;;;;;;;17.33;8.40;;;;;;;;;;4990614;28;20071;-74
2023/09/21 10:37:15;;;;;;;19.77;8.48;;;;;;;;;;4973662;28;20054;-74
2023/09/21 10:39:41;;;;;;;8.50;7.70;;;;;;;;;;4990664;28;20507;-74
2023/09/21 10:42:07;;;;;;;14.50;8.65;;;;;;;;;;4990396;28;20580;-73
2023/09/21 10:44:52;;;;;;;17.05;8.73;;;;;;;;;;4990274;28;20054;-75
2023/09/21 10:47:37;;;;;;;13.30;8.65;;;;;;;;;;4972881;28;20518;-75
2023/09/21 10:50:03;;;;;;;11.10;7.93;;;;;;;;;;4989033;28;20046;-75
2023/09/21 10:52:31;;;;;;;11.85;7.72;;;;;;;;;;4990492;28;20105;-74
2023/09/21 10:54:57;;;;;;;14.25;7.90;;;;;;;;;;4973386;28;20053;-74
2023/09/21 10:57:24;;;;;;;11.70;7.90;;;;;;;;;;4957122;28;20038;-74
2023/09/21 10:59:52;;;;;;;14.05;8.02;;;;;;;;;;4989224;28;20073;-74
2023/09/21 11:02:21;;;;;;;11.43;8.43;;;;;;;;;;4989449;28;20532;-75
2023/09/21 11:04:51;;;;;;;11.30;8.48;;;;;;;;;;4990505;28;20057;-72
2023/09/21 11:07:17;;;;;;;11.90;7.93;;;;;;;;;;4989203;28;20046;-74
2023/09/21 11:09:49;;;;;;;13.25;8.32;;;;;;;;;;4957425;28;20073;-74
2023/09/21 11:12:17;;;;;;;19.40;8.57;;;;;;;;;;4974321;28;20050;-74
2023/09/21 11:14:44;;;;;;;13.50;7.93;;;;;;;;;;4957518;28;20054;-75
2023/09/21 11:17:16;;;;;;;13.63;8.50;;;;;;;;;;4973027;28;20034;-73
2023/09/21 11:19:42;;;;;;;13.63;8.10;;;;;;;;;;4990692;28;20052;-75
2023/09/21 11:22:09;;;;;;;14.52;8.43;;;;;;;;;;4990346;28;20049;-74
2023/09/21 11:24:35;;;;;;;15.98;8.88;;;;;;;;;;4957009;28;20050;-74
2023/09/21 11:27:11;;;;;;;12.13;8.45;;;;;;;;;;4990281;28;20486;-74
2023/09/21 11:29:41;;;;;;;15.23;9.25;;;;;;;;;;4990136;28;20038;-73
2023/09/21 11:32:07;;;;;;;16.52;9.45;;;;;;;;;;5005458;28;20046;-74
2023/09/21 11:34:39;;;;;;;15.95;9.50;;;;;;;;;;4972515;28;20073;-74
2023/09/21 11:37:07;;;;;;;15.40;10.45;;;;;;;;;;4990197;28;20042;-73
2023/09/21 11:39:35;;;;;;;12.05;9.95;;;;;;;;;;4972478;28;20050;-74
2023/09/21 11:42:01;;;;;;;17.95;9.70;;;;;;;;;;4957227;28;20043;-74
2023/09/21 11:44:30;;;;;;;12.02;10.63;;;;;;;;;;4956574;28;20545;-74
2023/09/21 11:47:01;;;;;;;11.10;9.73;;;;;;;;;;4991143;28;20136;-74
2023/09/21 11:49:36;;;;;;;15.88;11.20;;;;;;;;;;4973153;28;20533;-75
2023/09/21 11:52:04;;;;;;;17.02;10.60;;;;;;;;;;4994863;28;20054;-74
2023/09/21 11:54:36;;;;;;;17.60;10.63;;;;;;;;;;4999146;28;20073;-73
2023/09/21 11:57:03;;;;;;;15.00;9.98;;;;;;;;;;4978682;28;20038;-74
2023/09/21 11:59:33;;;;;;;15.07;10.23;;;;;;;;;;4993629;28;20045;-73
2023/09/21 12:02:03;;;;;;;13.90;10.50;;;;;;;;;;4976328;28;20042;-74
2023/09/21 12:04:31;;;;;;;15.52;10.77;;;;;;;;;;4976006;28;20429;-73
2023/09/21 12:06:58;;;;;;;14.57;10.20;;;;;;;;;;4976012;28;20049;-73
2023/09/21 12:09:24;;;;;;;16.15;10.60;;;;;;;;;;4976101;28;20133;-74
2023/09/21 12:11:54;;;;;;;12.82;10.55;;;;;;;;;;4975989;28;20061;-75
2023/09/21 12:14:21;;;;;;;17.95;10.43;;;;;;;;;;4993365;28;20052;-75
2023/09/21 12:16:50;;;;;;;17.15;9.57;;;;;;;;;;4993287;28;20521;-74
2023/09/21 12:19:18;;;;;;;16.10;9.88;;;;;;;;;;4975972;28;20042;-74
2023/09/21 12:21:48;;;;;;;8.23;7.40;;;;;;;;;;4993266;28;20042;-75
2023/09/21 12:24:15;;;;;;;12.65;8.98;;;;;;;;;;4992944;28;20030;-75
2023/09/21 12:26:41;;;;;;;11.43;8.50;;;;;;;;;;4993025;28;20438;-75
2023/09/21 12:29:10;;;;;;;15.45;7.93;;;;;;;;;;4975633;28;20039;-75
2023/09/21 12:31:37;;;;;;;15.27;8.27;;;;;;;;;;4975369;28;20046;-75
2023/09/21 12:34:03;;;;;;;9.65;8.65;;;;;;;;;;4991984;28;20034;-74
2023/09/21 12:36:30;;;;;;;9.63;8.73;;;;;;;;;;4975160;28;20058;-74
2023/09/21 12:38:56;;;;;;;11.82;8.60;;;;;;;;;;4975683;28;20038;-74
2023/09/21 12:41:22;;;;;;;10.05;8.88;;;;;;;;;;4988586;28;20046;-74
2023/09/21 12:43:48;;;;;;;12.25;8.68;;;;;;;;;;4980947;28;20049;-73
2023/09/21 12:46:14;;;;;;;11.15;8.52;;;;;;;;;;4965813;28;20129;-74
2023/09/21 12:48:40;;;;;;;11.13;7.88;;;;;;;;;;4948515;28;20138;-74
2023/09/21 12:51:06;;;;;;;26.42;9.93;;;;;;;;;;4964516;28;20042;-74
2023/09/21 12:53:33;;;;;;;10.55;9.32;;;;;;;;;;4965649;28;20034;-74
2023/09/21 12:55:59;;;;;;;14.95;9.18;;;;;;;;;;4981785;28;20038;-74
2023/09/21 12:58:25;;;;;;;10.25;8.90;;;;;;;;;;4981969;28;20057;-73
2023/09/21 13:00:52;;;;;;;13.05;8.57;;;;;;;;;;4949802;28;20249;-73
2023/09/21 13:03:18;;;;;;;10.27;8.88;;;;;;;;;;4964368;28;20530;-74
2023/09/21 13:05:46;;;;;;;12.02;8.90;;;;;;;;;;4981263;28;20042;-74
2023/09/21 13:08:13;;;;;;;16.88;8.35;;;;;;;;;;4981800;28;20030;-74
2023/09/21 13:10:43;;;;;;;13.93;8.52;;;;;;;;;;4972698;28;20049;-74
2023/09/21 13:13:10;;;;;;;12.02;8.20;;;;;;;;;;4973064;28;20420;-74
2023/09/21 13:15:35;;;;;;;19.67;8.75;;;;;;;;;;4971495;28;20399;-73
2023/09/21 13:18:02;;;;;;;17.40;9.23;;;;;;;;;;4955798;28;20057;-74
2023/09/21 13:20:29;;;;;;;10.23;7.47;;;;;;;;;;4980368;28;20085;-74
2023/09/21 13:22:55;;;;;;;12.07;8.48;;;;;;;;;;4965582;28;20034;-74
2023/09/21 13:25:21;;;;;;;10.95;7.85;;;;;;;;;;4964478;28;20697;-74
2023/09/21 13:27:48;;;;;;;16.23;8.80;;;;;;;;;;4980690;28;20467;-74
2023/09/21 13:30:15;;;;;;;11.38;8.40;;;;;;;;;;4975153;28;20050;-74
2023/09/21 13:32:41;;;;;;;9.38;7.95;;;;;;;;;;4972633;28;20066;-75
2023/09/21 13:35:08;;;;;;;8.82;7.57;;;;;;;;;;4972385;28;20063;-74
2023/09/21 13:37:35;;;;;;;12.27;6.75;;;;;;;;;;4938861;28;20045;-74
2023/09/21 13:40:01;;;;;;;9.60;7.70;;;;;;;;;;4955170;28;20038;-74
2023/09/21 13:42:29;;;;;;;14.98;7.10;;;;;;;;;;4955308;28;20030;-73
2023/09/21 13:44:55;;;;;;;12.55;6.80;;;;;;;;;;4972254;28;20050;-74
2023/09/21 13:47:22;;;;;;;9.48;7.00;;;;;;;;;;4972137;28;20077;-74
2023/09/21 13:49:48;;;;;;;8.00;7.30;;;;;;;;;;4974803;28;20038;-72
2023/09/21 13:52:15;;;;;;;15.73;7.05;;;;;;;;;;4956892;28;20122;-72
2023/09/21 13:54:42;;;;;;;12.32;6.95;;;;;;;;;;4967136;28;20061;-73
2023/09/21 13:57:08;;;;;;;7.82;6.40;;;;;;;;;;4964098;28;20038;-73
2023/09/21 13:59:34;;;;;;;7.22;6.45;;;;;;;;;;4981454;28;20046;-74
2023/09/21 14:02:00;;;;;;;11.48;7.63;;;;;;;;;;4962750;28;20043;-73
2023/09/21 14:04:27;;;;;;;11.38;7.25;;;;;;;;;;4981466;28;20054;-73
2023/09/21 14:06:53;;;;;;;8.02;6.60;;;;;;;;;;4964624;28;20042;-73
2023/09/21 14:09:20;;;;;;;13.00;6.85;;;;;;;;;;4979875;28;20039;-74
2023/09/21 14:11:47;;;;;;;10.13;7.25;;;;;;;;;;4963862;28;20529;-73
2023/09/21 14:14:13;;;;;;;7.85;7.07;;;;;;;;;;4963733;28;20035;-73
2023/09/21 14:16:39;;;;;;;11.15;7.85;;;;;;;;;;4979303;28;20423;-73
2023/09/21 14:19:05;;;;;;;15.65;7.57;;;;;;;;;;4981326;28;20038;-72
2023/09/21 14:21:31;;;;;;;12.80;7.55;;;;;;;;;;4986197;28;20109;-72
2023/09/21 14:23:57;;;;;;;14.68;7.32;;;;;;;;;;5006082;28;20526;-73
2023/09/21 14:26:24;;;;;;;15.70;7.93;;;;;;;;;;4979131;28;20051;-73
2023/09/21 14:28:50;;;;;;;8.50;7.68;;;;;;;;;;4980922;28;20085;-72
2023/09/21 14:31:16;;;;;;;11.50;7.82;;;;;;;;;;4980893;28;20043;-72